sensor_id;sensor_type;location;lat;lon;timestamp;P1;durP1;ratioP1;P2;durP2;ratioP2
11709;SDS011;5911;51.036;6.972;2023-06-26T00:01:22;10.18;;;8.43;;
11709;SDS011;5911;51.036;6.972;2023-06-26T00:03:50;12.15;;;9.13;;
11709;SDS011;5911;51.036;6.972;2023-06-26T00:06:19;13.82;;;9.75;;
11709;SDS011;5911;51.036;6.972;2023-06-26T00:08:47;13.98;;;9.13;;
11709;SDS011;5911;51.036;6.972;2023-06-26T00:11:15;12.32;;;9.20;;
11709;SDS011;5911;51.036;6.972;2023-06-26T00:13:43;12.48;;;9.23;;
11709;SDS011;5911;51.036;6.972;2023-06-26T00:16:10;11.00;;;8.68;;
11709;SDS011;5911;51.036;6.972;2023-06-26T00:18:38;9.88;;;8.68;;
11709;SDS011;5911;51.036;6.972;2023-06-26T00:21:06;10.63;;;8.57;;
11709;SDS011;5911;51.036;6.972;2023-06-26T00:23:35;10.43;;;8.38;;
11709;SDS011;5911;51.036;6.972;2023-06-26T00:26:05;12.13;;;8.80;;
11709;SDS011;5911;51.036;6.972;2023-06-26T00:28:35;11.23;;;7.95;;
11709;SDS011;5911;51.036;6.972;2023-06-26T00:31:04;9.38;;;7.75;;
11709;SDS011;5911;51.036;6.972;2023-06-26T00:33:32;12.45;;;8.02;;
11709;SDS011;5911;51.036;6.972;2023-06-26T00:36:00;12.38;;;8.38;;
11709;SDS011;5911;51.036;6.972;2023-06-26T00:38:29;9.75;;;8.32;;
11709;SDS011;5911;51.036;6.972;2023-06-26T00:40:59;10.63;;;8.48;;
11709;SDS011;5911;51.036;6.972;2023-06-26T00:43:28;13.48;;;8.75;;
11709;SDS011;5911;51.036;6.972;2023-06-26T00:45:55;12.00;;;9.07;;
11709;SDS011;5911;51.036;6.972;2023-06-26T00:48:23;14.10;;;9.40;;
11709;SDS011;5911;51.036;6.972;2023-06-26T00:50:51;15.00;;;9.75;;
11709;SDS011;5911;51.036;6.972;2023-06-26T00:53:19;13.20;;;9.73;;
11709;SDS011;5911;51.036;6.972;2023-06-26T00:55:47;13.68;;;9.30;;
11709;SDS011;5911;51.036;6.972;2023-06-26T00:58:16;10.55;;;8.93;;
11709;SDS011;5911;51.036;6.972;2023-06-26T01:00:44;12.65;;;8.63;;
11709;SDS011;5911;51.036;6.972;2023-06-26T01:03:12;13.10;;;9.15;;
11709;SDS011;5911;51.036;6.972;2023-06-26T01:05:40;12.82;;;9.18;;
11709;SDS011;5911;51.036;6.972;2023-06-26T01:08:12;13.63;;;9.30;;
11709;SDS011;5911;51.036;6.972;2023-06-26T01:10:41;11.80;;;8.20;;
11709;SDS011;5911;51.036;6.972;2023-06-26T01:13:09;10.55;;;8.45;;
11709;SDS011;5911;51.036;6.972;2023-06-26T01:15:38;12.60;;;9.27;;
11709;SDS011;5911;51.036;6.972;2023-06-26T01:18:07;14.48;;;10.00;;
11709;SDS011;5911;51.036;6.972;2023-06-26T01:20:36;12.40;;;9.63;;
11709;SDS011;5911;51.036;6.972;2023-06-26T01:23:10;15.80;;;10.05;;
11709;SDS011;5911;51.036;6.972;2023-06-26T01:25:45;14.80;;;10.30;;
11709;SDS011;5911;51.036;6.972;2023-06-26T01:28:25;14.32;;;10.38;;
11709;SDS011;5911;51.036;6.972;2023-06-26T01:30:56;17.20;;;10.45;;
11709;SDS011;5911;51.036;6.972;2023-06-26T01:33:24;14.07;;;9.80;;
11709;SDS011;5911;51.036;6.972;2023-06-26T01:35:52;14.15;;;11.18;;
11709;SDS011;5911;51.036;6.972;2023-06-26T01:38:21;14.65;;;10.50;;
11709;SDS011;5911;51.036;6.972;2023-06-26T01:40:49;16.27;;;10.63;;
11709;SDS011;5911;51.036;6.972;2023-06-26T01:43:18;14.30;;;11.00;;
11709;SDS011;5911;51.036;6.972;2023-06-26T01:45:54;12.57;;;10.90;;
11709;SDS011;5911;51.036;6.972;2023-06-26T01:48:27;18.40;;;11.30;;
11709;SDS011;5911;51.036;6.972;2023-06-26T01:51:00;14.15;;;10.70;;
11709;SDS011;5911;51.036;6.972;2023-06-26T01:53:35;16.30;;;11.13;;
11709;SDS011;5911;51.036;6.972;2023-06-26T01:56:07;17.23;;;11.55;;
11709;SDS011;5911;51.036;6.972;2023-06-26T01:58:40;20.83;;;12.68;;
11709;SDS011;5911;51.036;6.972;2023-06-26T02:01:12;22.30;;;12.85;;
11709;SDS011;5911;51.036;6.972;2023-06-26T02:03:40;21.15;;;12.75;;
11709;SDS011;5911;51.036;6.972;2023-06-26T02:06:08;18.33;;;11.73;;
11709;SDS011;5911;51.036;6.972;2023-06-26T02:08:36;18.00;;;12.05;;
11709;SDS011;5911;51.036;6.972;2023-06-26T02:11:04;17.42;;;12.57;;
11709;SDS011;5911;51.036;6.972;2023-06-26T02:13:31;18.67;;;12.13;;
11709;SDS011;5911;51.036;6.972;2023-06-26T02:15:59;15.73;;;11.35;;
11709;SDS011;5911;51.036;6.972;2023-06-26T02:18:28;15.45;;;11.27;;
11709;SDS011;5911;51.036;6.972;2023-06-26T02:20:57;19.20;;;11.43;;
11709;SDS011;5911;51.036;6.972;2023-06-26T02:23:25;14.13;;;10.80;;
11709;SDS011;5911;51.036;6.972;2023-06-26T02:25:53;12.50;;;9.40;;
11709;SDS011;5911;51.036;6.972;2023-06-26T02:28:21;13.15;;;9.82;;
11709;SDS011;5911;51.036;6.972;2023-06-26T02:30:49;12.13;;;9.25;;
11709;SDS011;5911;51.036;6.972;2023-06-26T02:33:16;9.52;;;8.10;;
11709;SDS011;5911;51.036;6.972;2023-06-26T02:35:49;7.97;;;7.18;;
11709;SDS011;5911;51.036;6.972;2023-06-26T02:38:17;8.95;;;7.80;;
11709;SDS011;5911;51.036;6.972;2023-06-26T02:40:46;7.78;;;7.07;;
11709;SDS011;5911;51.036;6.972;2023-06-26T02:43:15;7.85;;;7.13;;
11709;SDS011;5911;51.036;6.972;2023-06-26T02:45:44;8.40;;;6.95;;
11709;SDS011;5911;51.036;6.972;2023-06-26T02:48:12;8.70;;;7.30;;
11709;SDS011;5911;51.036;6.972;2023-06-26T02:50:41;7.72;;;6.70;;
11709;SDS011;5911;51.036;6.972;2023-06-26T02:53:15;7.75;;;6.82;;
11709;SDS011;5911;51.036;6.972;2023-06-26T02:55:45;9.30;;;7.35;;
11709;SDS011;5911;51.036;6.972;2023-06-26T02:58:15;7.40;;;6.70;;
11709;SDS011;5911;51.036;6.972;2023-06-26T03:00:43;8.00;;;7.05;;
11709;SDS011;5911;51.036;6.972;2023-06-26T03:03:15;6.85;;;6.15;;
11709;SDS011;5911;51.036;6.972;2023-06-26T03:05:43;7.18;;;6.43;;
11709;SDS011;5911;51.036;6.972;2023-06-26T03:08:11;7.70;;;6.85;;
11709;SDS011;5911;51.036;6.972;2023-06-26T03:10:40;7.50;;;6.80;;
11709;SDS011;5911;51.036;6.972;2023-06-26T03:13:10;7.72;;;6.85;;
11709;SDS011;5911;51.036;6.972;2023-06-26T03:15:38;7.00;;;6.40;;
11709;SDS011;5911;51.036;6.972;2023-06-26T03:18:06;7.30;;;6.60;;
11709;SDS011;5911;51.036;6.972;2023-06-26T03:20:35;8.23;;;7.38;;
11709;SDS011;5911;51.036;6.972;2023-06-26T03:23:04;8.07;;;6.40;;
11709;SDS011;5911;51.036;6.972;2023-06-26T03:25:31;7.38;;;6.68;;
11709;SDS011;5911;51.036;6.972;2023-06-26T03:28:23;7.25;;;6.55;;
11709;SDS011;5911;51.036;6.972;2023-06-26T03:30:51;6.47;;;5.90;;
11709;SDS011;5911;51.036;6.972;2023-06-26T03:33:19;11.50;;;6.38;;
11709;SDS011;5911;51.036;6.972;2023-06-26T03:35:47;6.30;;;5.70;;
11709;SDS011;5911;51.036;6.972;2023-06-26T03:38:15;7.28;;;5.90;;
11709;SDS011;5911;51.036;6.972;2023-06-26T03:40:45;7.38;;;6.47;;
11709;SDS011;5911;51.036;6.972;2023-06-26T03:43:13;6.55;;;5.93;;
11709;SDS011;5911;51.036;6.972;2023-06-26T03:46:01;6.95;;;6.00;;
11709;SDS011;5911;51.036;6.972;2023-06-26T03:48:29;6.75;;;6.05;;
11709;SDS011;5911;51.036;6.972;2023-06-26T03:50:57;6.45;;;5.68;;
11709;SDS011;5911;51.036;6.972;2023-06-26T03:53:25;7.88;;;5.93;;
11709;SDS011;5911;51.036;6.972;2023-06-26T03:55:53;6.20;;;5.65;;
11709;SDS011;5911;51.036;6.972;2023-06-26T03:58:22;6.43;;;5.82;;
11709;SDS011;5911;51.036;6.972;2023-06-26T04:00:51;8.45;;;6.80;;
11709;SDS011;5911;51.036;6.972;2023-06-26T04:03:21;6.75;;;6.15;;
11709;SDS011;5911;51.036;6.972;2023-06-26T04:05:49;6.22;;;5.63;;
11709;SDS011;5911;51.036;6.972;2023-06-26T04:08:17;6.53;;;5.53;;
11709;SDS011;5911;51.036;6.972;2023-06-26T04:10:46;6.28;;;5.70;;
11709;SDS011;5911;51.036;6.972;2023-06-26T04:13:14;6.35;;;5.75;;
11709;SDS011;5911;51.036;6.972;2023-06-26T04:15:42;6.35;;;5.75;;
11709;SDS011;5911;51.036;6.972;2023-06-26T04:18:10;7.80;;;6.25;;
11709;SDS011;5911;51.036;6.972;2023-06-26T04:20:41;8.25;;;6.03;;
11709;SDS011;5911;51.036;6.972;2023-06-26T04:23:32;6.13;;;5.53;;
11709;SDS011;5911;51.036;6.972;2023-06-26T04:26:00;7.97;;;5.80;;
11709;SDS011;5911;51.036;6.972;2023-06-26T04:28:28;7.32;;;6.05;;
11709;SDS011;5911;51.036;6.972;2023-06-26T04:30:56;9.82;;;5.95;;
11709;SDS011;5911;51.036;6.972;2023-06-26T04:33:25;7.50;;;5.68;;
11709;SDS011;5911;51.036;6.972;2023-06-26T04:35:54;6.93;;;5.45;;
11709;SDS011;5911;51.036;6.972;2023-06-26T04:38:22;6.07;;;5.47;;
11709;SDS011;5911;51.036;6.972;2023-06-26T04:40:50;8.20;;;5.80;;
11709;SDS011;5911;51.036;6.972;2023-06-26T04:43:17;8.43;;;6.00;;
11709;SDS011;5911;51.036;6.972;2023-06-26T04:45:45;7.82;;;5.40;;
11709;SDS011;5911;51.036;6.972;2023-06-26T04:48:14;6.78;;;5.88;;
11709;SDS011;5911;51.036;6.972;2023-06-26T04:50:42;6.10;;;5.57;;
11709;SDS011;5911;51.036;6.972;2023-06-26T04:53:13;6.20;;;5.60;;
11709;SDS011;5911;51.036;6.972;2023-06-26T04:55:41;6.45;;;5.85;;
11709;SDS011;5911;51.036;6.972;2023-06-26T04:58:09;7.47;;;5.38;;
11709;SDS011;5911;51.036;6.972;2023-06-26T05:00:36;6.20;;;5.60;;
11709;SDS011;5911;51.036;6.972;2023-06-26T05:03:05;11.38;;;5.88;;
11709;SDS011;5911;51.036;6.972;2023-06-26T05:05:32;8.52;;;5.90;;
11709;SDS011;5911;51.036;6.972;2023-06-26T05:08:01;6.50;;;5.88;;
11709;SDS011;5911;51.036;6.972;2023-06-26T05:10:42;5.53;;;4.88;;
11709;SDS011;5911;51.036;6.972;2023-06-26T05:13:10;5.82;;;4.93;;
11709;SDS011;5911;51.036;6.972;2023-06-26T05:15:41;6.80;;;5.78;;
11709;SDS011;5911;51.036;6.972;2023-06-26T05:18:09;9.38;;;5.82;;
11709;SDS011;5911;51.036;6.972;2023-06-26T05:20:37;6.65;;;5.03;;
11709;SDS011;5911;51.036;6.972;2023-06-26T05:23:06;6.93;;;5.38;;
11709;SDS011;5911;51.036;6.972;2023-06-26T05:25:35;6.93;;;5.13;;
11709;SDS011;5911;51.036;6.972;2023-06-26T05:28:04;7.15;;;5.15;;
11709;SDS011;5911;51.036;6.972;2023-06-26T05:30:34;6.25;;;5.63;;
11709;SDS011;5911;51.036;6.972;2023-06-26T05:33:03;6.20;;;5.45;;
11709;SDS011;5911;51.036;6.972;2023-06-26T05:35:34;5.85;;;4.82;;
11709;SDS011;5911;51.036;6.972;2023-06-26T05:38:04;4.97;;;4.40;;
11709;SDS011;5911;51.036;6.972;2023-06-26T05:40:33;6.95;;;5.22;;
11709;SDS011;5911;51.036;6.972;2023-06-26T05:43:03;6.55;;;5.32;;
11709;SDS011;5911;51.036;6.972;2023-06-26T05:45:32;7.68;;;4.70;;
11709;SDS011;5911;51.036;6.972;2023-06-26T05:47:59;5.63;;;5.05;;
11709;SDS011;5911;51.036;6.972;2023-06-26T05:50:28;5.95;;;4.60;;
11709;SDS011;5911;51.036;6.972;2023-06-26T05:52:56;5.13;;;4.65;;
11709;SDS011;5911;51.036;6.972;2023-06-26T05:55:25;6.72;;;4.88;;
11709;SDS011;5911;51.036;6.972;2023-06-26T05:57:53;6.93;;;4.68;;
11709;SDS011;5911;51.036;6.972;2023-06-26T06:00:26;11.02;;;5.35;;
11709;SDS011;5911;51.036;6.972;2023-06-26T06:02:54;6.88;;;5.57;;
11709;SDS011;5911;51.036;6.972;2023-06-26T06:05:22;7.47;;;5.07;;
11709;SDS011;5911;51.036;6.972;2023-06-26T06:07:50;8.25;;;5.22;;
11709;SDS011;5911;51.036;6.972;2023-06-26T06:10:18;9.73;;;5.20;;
11709;SDS011;5911;51.036;6.972;2023-06-26T06:12:46;7.00;;;4.93;;
11709;SDS011;5911;51.036;6.972;2023-06-26T06:15:14;5.65;;;5.03;;
11709;SDS011;5911;51.036;6.972;2023-06-26T06:17:43;7.57;;;5.32;;
11709;SDS011;5911;51.036;6.972;2023-06-26T06:20:11;6.40;;;4.55;;
11709;SDS011;5911;51.036;6.972;2023-06-26T06:22:39;7.28;;;5.55;;
11709;SDS011;5911;51.036;6.972;2023-06-26T06:25:07;5.45;;;4.75;;
11709;SDS011;5911;51.036;6.972;2023-06-26T06:27:35;8.52;;;5.43;;
11709;SDS011;5911;51.036;6.972;2023-06-26T06:30:03;10.27;;;5.47;;
11709;SDS011;5911;51.036;6.972;2023-06-26T06:32:34;6.78;;;4.95;;
11709;SDS011;5911;51.036;6.972;2023-06-26T06:35:03;8.13;;;5.40;;
11709;SDS011;5911;51.036;6.972;2023-06-26T06:37:36;7.35;;;4.85;;
11709;SDS011;5911;51.036;6.972;2023-06-26T06:40:05;7.95;;;5.10;;
11709;SDS011;5911;51.036;6.972;2023-06-26T06:42:34;7.47;;;4.82;;
11709;SDS011;5911;51.036;6.972;2023-06-26T06:45:02;6.55;;;4.93;;
11709;SDS011;5911;51.036;6.972;2023-06-26T06:47:31;8.23;;;4.80;;
11709;SDS011;5911;51.036;6.972;2023-06-26T06:49:59;7.72;;;5.10;;
11709;SDS011;5911;51.036;6.972;2023-06-26T06:52:36;10.77;;;5.35;;
11709;SDS011;5911;51.036;6.972;2023-06-26T06:55:06;6.38;;;4.57;;
11709;SDS011;5911;51.036;6.972;2023-06-26T06:57:35;9.10;;;5.13;;
11709;SDS011;5911;51.036;6.972;2023-06-26T07:00:05;9.70;;;5.40;;
11709;SDS011;5911;51.036;6.972;2023-06-26T07:02:36;10.32;;;4.78;;
11709;SDS011;5911;51.036;6.972;2023-06-26T07:05:04;8.38;;;5.30;;
11709;SDS011;5911;51.036;6.972;2023-06-26T07:07:33;11.32;;;5.22;;
11709;SDS011;5911;51.036;6.972;2023-06-26T07:10:04;7.00;;;4.50;;
11709;SDS011;5911;51.036;6.972;2023-06-26T07:12:34;8.73;;;4.75;;
11709;SDS011;5911;51.036;6.972;2023-06-26T07:15:02;7.40;;;5.20;;
11709;SDS011;5911;51.036;6.972;2023-06-26T07:17:32;9.25;;;4.85;;
11709;SDS011;5911;51.036;6.972;2023-06-26T07:20:00;8.13;;;5.35;;
11709;SDS011;5911;51.036;6.972;2023-06-26T07:22:31;11.32;;;4.90;;
11709;SDS011;5911;51.036;6.972;2023-06-26T07:25:01;8.85;;;4.80;;
11709;SDS011;5911;51.036;6.972;2023-06-26T07:27:30;10.02;;;5.43;;
11709;SDS011;5911;51.036;6.972;2023-06-26T07:29:59;6.70;;;5.18;;
11709;SDS011;5911;51.036;6.972;2023-06-26T07:32:27;9.98;;;5.82;;
11709;SDS011;5911;51.036;6.972;2023-06-26T07:34:55;6.53;;;5.00;;
11709;SDS011;5911;51.036;6.972;2023-06-26T07:37:23;11.55;;;5.40;;
11709;SDS011;5911;51.036;6.972;2023-06-26T07:39:51;9.35;;;5.85;;
11709;SDS011;5911;51.036;6.972;2023-06-26T07:42:20;8.18;;;4.95;;
11709;SDS011;5911;51.036;6.972;2023-06-26T07:44:48;8.45;;;6.15;;
11709;SDS011;5911;51.036;6.972;2023-06-26T07:47:16;8.55;;;5.60;;
11709;SDS011;5911;51.036;6.972;2023-06-26T07:49:44;8.68;;;5.78;;
11709;SDS011;5911;51.036;6.972;2023-06-26T07:52:18;11.50;;;5.75;;
11709;SDS011;5911;51.036;6.972;2023-06-26T07:54:46;7.65;;;5.30;;
11709;SDS011;5911;51.036;6.972;2023-06-26T07:57:14;12.27;;;5.30;;
11709;SDS011;5911;51.036;6.972;2023-06-26T07:59:46;5.45;;;4.80;;
11709;SDS011;5911;51.036;6.972;2023-06-26T08:02:13;8.52;;;5.90;;
11709;SDS011;5911;51.036;6.972;2023-06-26T08:04:41;10.55;;;5.82;;
11709;SDS011;5911;51.036;6.972;2023-06-26T08:07:09;10.20;;;5.35;;
11709;SDS011;5911;51.036;6.972;2023-06-26T08:09:37;8.73;;;5.70;;
11709;SDS011;5911;51.036;6.972;2023-06-26T08:12:05;10.77;;;5.55;;
11709;SDS011;5911;51.036;6.972;2023-06-26T08:14:37;12.45;;;5.78;;
11709;SDS011;5911;51.036;6.972;2023-06-26T08:17:06;9.30;;;5.30;;
11709;SDS011;5911;51.036;6.972;2023-06-26T08:19:34;8.80;;;5.57;;
11709;SDS011;5911;51.036;6.972;2023-06-26T08:22:05;7.32;;;4.95;;
11709;SDS011;5911;51.036;6.972;2023-06-26T08:24:33;11.20;;;5.22;;
11709;SDS011;5911;51.036;6.972;2023-06-26T08:27:03;10.20;;;5.20;;
11709;SDS011;5911;51.036;6.972;2023-06-26T08:29:34;9.40;;;5.65;;
11709;SDS011;5911;51.036;6.972;2023-06-26T08:32:02;9.93;;;5.35;;
11709;SDS011;5911;51.036;6.972;2023-06-26T08:34:31;9.02;;;5.22;;
11709;SDS011;5911;51.036;6.972;2023-06-26T08:36:59;9.40;;;5.55;;
11709;SDS011;5911;51.036;6.972;2023-06-26T08:39:28;10.73;;;5.75;;
11709;SDS011;5911;51.036;6.972;2023-06-26T08:41:56;11.88;;;5.65;;
11709;SDS011;5911;51.036;6.972;2023-06-26T08:44:24;9.23;;;5.53;;
11709;SDS011;5911;51.036;6.972;2023-06-26T08:46:52;9.00;;;5.38;;
11709;SDS011;5911;51.036;6.972;2023-06-26T08:49:20;10.00;;;5.32;;
11709;SDS011;5911;51.036;6.972;2023-06-26T08:51:56;9.68;;;5.40;;
11709;SDS011;5911;51.036;6.972;2023-06-26T08:54:31;9.95;;;5.60;;
11709;SDS011;5911;51.036;6.972;2023-06-26T08:57:04;13.02;;;5.78;;
11709;SDS011;5911;51.036;6.972;2023-06-26T08:59:34;21.48;;;5.70;;
11709;SDS011;5911;51.036;6.972;2023-06-26T09:02:02;8.70;;;4.88;;
11709;SDS011;5911;51.036;6.972;2023-06-26T09:04:30;13.15;;;4.93;;
11709;SDS011;5911;51.036;6.972;2023-06-26T09:06:59;11.98;;;4.95;;
11709;SDS011;5911;51.036;6.972;2023-06-26T09:09:28;14.63;;;5.20;;
11709;SDS011;5911;51.036;6.972;2023-06-26T09:11:56;12.75;;;5.85;;
11709;SDS011;5911;51.036;6.972;2023-06-26T09:14:24;9.50;;;4.43;;
11709;SDS011;5911;51.036;6.972;2023-06-26T09:16:52;17.40;;;6.07;;
11709;SDS011;5911;51.036;6.972;2023-06-26T09:19:20;9.68;;;5.28;;
11709;SDS011;5911;51.036;6.972;2023-06-26T09:21:48;15.65;;;4.93;;
11709;SDS011;5911;51.036;6.972;2023-06-26T09:24:19;11.43;;;4.38;;
11709;SDS011;5911;51.036;6.972;2023-06-26T09:26:47;8.93;;;5.03;;
11709;SDS011;5911;51.036;6.972;2023-06-26T09:29:15;15.77;;;4.82;;
11709;SDS011;5911;51.036;6.972;2023-06-26T09:31:45;10.73;;;4.63;;
11709;SDS011;5911;51.036;6.972;2023-06-26T09:34:12;12.13;;;4.80;;
11709;SDS011;5911;51.036;6.972;2023-06-26T09:36:40;10.25;;;4.53;;
11709;SDS011;5911;51.036;6.972;2023-06-26T09:39:12;7.60;;;4.10;;
11709;SDS011;5911;51.036;6.972;2023-06-26T09:41:42;9.55;;;4.57;;
11709;SDS011;5911;51.036;6.972;2023-06-26T09:44:11;9.93;;;4.63;;
11709;SDS011;5911;51.036;6.972;2023-06-26T09:46:41;7.68;;;4.45;;
11709;SDS011;5911;51.036;6.972;2023-06-26T09:49:12;6.65;;;4.80;;
11709;SDS011;5911;51.036;6.972;2023-06-26T09:51:40;13.05;;;4.60;;
11709;SDS011;5911;51.036;6.972;2023-06-26T09:54:10;8.95;;;4.68;;
11709;SDS011;5911;51.036;6.972;2023-06-26T09:56:38;10.48;;;4.18;;
11709;SDS011;5911;51.036;6.972;2023-06-26T09:59:08;8.05;;;4.38;;
11709;SDS011;5911;51.036;6.972;2023-06-26T10:01:39;7.43;;;3.70;;
11709;SDS011;5911;51.036;6.972;2023-06-26T10:04:09;8.52;;;3.72;;
11709;SDS011;5911;51.036;6.972;2023-06-26T10:06:38;9.05;;;4.18;;
11709;SDS011;5911;51.036;6.972;2023-06-26T10:09:13;9.13;;;3.47;;
11709;SDS011;5911;51.036;6.972;2023-06-26T10:11:45;14.50;;;4.60;;
11709;SDS011;5911;51.036;6.972;2023-06-26T10:14:20;9.80;;;3.92;;
11709;SDS011;5911;51.036;6.972;2023-06-26T10:16:49;10.60;;;4.28;;
11709;SDS011;5911;51.036;6.972;2023-06-26T10:19:18;12.10;;;5.03;;
11709;SDS011;5911;51.036;6.972;2023-06-26T10:21:51;7.50;;;4.22;;
11709;SDS011;5911;51.036;6.972;2023-06-26T10:24:20;8.43;;;3.85;;
11709;SDS011;5911;51.036;6.972;2023-06-26T10:26:50;8.98;;;4.45;;
11709;SDS011;5911;51.036;6.972;2023-06-26T10:29:24;11.15;;;3.70;;
11709;SDS011;5911;51.036;6.972;2023-06-26T10:31:55;7.68;;;3.65;;
11709;SDS011;5911;51.036;6.972;2023-06-26T10:34:29;7.43;;;3.25;;
11709;SDS011;5911;51.036;6.972;2023-06-26T10:37:01;7.90;;;3.75;;
11709;SDS011;5911;51.036;6.972;2023-06-26T10:39:46;8.85;;;3.65;;
11709;SDS011;5911;51.036;6.972;2023-06-26T10:42:15;9.50;;;3.55;;
11709;SDS011;5911;51.036;6.972;2023-06-26T10:44:47;6.45;;;3.60;;
11709;SDS011;5911;51.036;6.972;2023-06-26T10:47:30;8.85;;;4.18;;
11709;SDS011;5911;51.036;6.972;2023-06-26T10:53:10;8.95;;;3.67;;
11709;SDS011;5911;51.036;6.972;2023-06-26T10:55:44;7.18;;;3.50;;
11709;SDS011;5911;51.036;6.972;2023-06-26T10:58:29;6.68;;;3.40;;
11709;SDS011;5911;51.036;6.972;2023-06-26T11:01:16;10.02;;;3.50;;
11709;SDS011;5911;51.036;6.972;2023-06-26T11:03:45;6.97;;;3.13;;
11709;SDS011;5911;51.036;6.972;2023-06-26T11:06:17;7.75;;;3.28;;
11709;SDS011;5911;51.036;6.972;2023-06-26T11:08:47;5.53;;;2.80;;
11709;SDS011;5911;51.036;6.972;2023-06-26T11:11:15;8.60;;;3.00;;
11709;SDS011;5911;51.036;6.972;2023-06-26T11:13:45;8.13;;;2.70;;
11709;SDS011;5911;51.036;6.972;2023-06-26T11:16:15;8.15;;;2.55;;
11709;SDS011;5911;51.036;6.972;2023-06-26T11:18:43;7.07;;;2.83;;
11709;SDS011;5911;51.036;6.972;2023-06-26T11:21:12;6.40;;;3.05;;
11709;SDS011;5911;51.036;6.972;2023-06-26T11:23:41;8.48;;;2.67;;
11709;SDS011;5911;51.036;6.972;2023-06-26T11:26:17;4.18;;;2.63;;
11709;SDS011;5911;51.036;6.972;2023-06-26T11:28:48;5.80;;;2.60;;
11709;SDS011;5911;51.036;6.972;2023-06-26T11:31:25;6.22;;;2.60;;
11709;SDS011;5911;51.036;6.972;2023-06-26T11:33:53;8.27;;;2.55;;
11709;SDS011;5911;51.036;6.972;2023-06-26T11:36:23;7.68;;;2.63;;
11709;SDS011;5911;51.036;6.972;2023-06-26T11:38:53;8.70;;;2.10;;
11709;SDS011;5911;51.036;6.972;2023-06-26T11:41:22;6.10;;;2.88;;
11709;SDS011;5911;51.036;6.972;2023-06-26T11:43:54;9.50;;;2.60;;
11709;SDS011;5911;51.036;6.972;2023-06-26T11:46:22;8.60;;;2.42;;
11709;SDS011;5911;51.036;6.972;2023-06-26T11:48:51;5.97;;;2.30;;
11709;SDS011;5911;51.036;6.972;2023-06-26T11:51:19;9.15;;;2.55;;
11709;SDS011;5911;51.036;6.972;2023-06-26T11:53:48;10.65;;;2.35;;
11709;SDS011;5911;51.036;6.972;2023-06-26T11:56:16;4.38;;;1.80;;
11709;SDS011;5911;51.036;6.972;2023-06-26T11:58:55;5.75;;;2.13;;
11709;SDS011;5911;51.036;6.972;2023-06-26T12:01:23;3.53;;;1.85;;
11709;SDS011;5911;51.036;6.972;2023-06-26T12:03:58;4.80;;;2.20;;
11709;SDS011;5911;51.036;6.972;2023-06-26T12:06:28;5.57;;;2.20;;
11709;SDS011;5911;51.036;6.972;2023-06-26T12:08:56;3.92;;;2.08;;
11709;SDS011;5911;51.036;6.972;2023-06-26T12:11:26;5.20;;;2.28;;
11709;SDS011;5911;51.036;6.972;2023-06-26T12:13:57;4.32;;;1.70;;
11709;SDS011;5911;51.036;6.972;2023-06-26T12:16:25;4.75;;;1.77;;
11709;SDS011;5911;51.036;6.972;2023-06-26T12:18:59;7.20;;;2.15;;
11709;SDS011;5911;51.036;6.972;2023-06-26T12:21:27;4.80;;;2.22;;
11709;SDS011;5911;51.036;6.972;2023-06-26T12:23:59;6.30;;;1.90;;
11709;SDS011;5911;51.036;6.972;2023-06-26T12:26:30;9.20;;;2.03;;
11709;SDS011;5911;51.036;6.972;2023-06-26T12:29:02;3.42;;;1.90;;
11709;SDS011;5911;51.036;6.972;2023-06-26T12:31:30;5.13;;;2.00;;
11709;SDS011;5911;51.036;6.972;2023-06-26T12:34:00;2.17;;;1.52;;
11709;SDS011;5911;51.036;6.972;2023-06-26T12:36:28;7.05;;;2.15;;
11709;SDS011;5911;51.036;6.972;2023-06-26T12:38:56;10.20;;;2.80;;
11709;SDS011;5911;51.036;6.972;2023-06-26T12:41:28;3.97;;;1.85;;
11709;SDS011;5911;51.036;6.972;2023-06-26T12:43:56;5.95;;;1.95;;
11709;SDS011;5911;51.036;6.972;2023-06-26T12:46:32;7.30;;;2.22;;
11709;SDS011;5911;51.036;6.972;2023-06-26T12:49:03;3.40;;;1.80;;
11709;SDS011;5911;51.036;6.972;2023-06-26T12:51:47;5.65;;;1.83;;
11709;SDS011;5911;51.036;6.972;2023-06-26T12:54:15;6.43;;;2.00;;
11709;SDS011;5911;51.036;6.972;2023-06-26T12:56:43;2.30;;;1.77;;
11709;SDS011;5911;51.036;6.972;2023-06-26T12:59:10;3.58;;;1.75;;
11709;SDS011;5911;51.036;6.972;2023-06-26T13:01:38;3.08;;;1.67;;
11709;SDS011;5911;51.036;6.972;2023-06-26T13:04:07;4.07;;;1.40;;
11709;SDS011;5911;51.036;6.972;2023-06-26T13:06:35;5.55;;;1.58;;
11709;SDS011;5911;51.036;6.972;2023-06-26T13:09:04;4.07;;;1.70;;
11709;SDS011;5911;51.036;6.972;2023-06-26T13:11:32;3.58;;;1.40;;
11709;SDS011;5911;51.036;6.972;2023-06-26T13:14:01;3.25;;;1.50;;
11709;SDS011;5911;51.036;6.972;2023-06-26T13:16:36;5.43;;;1.27;;
11709;SDS011;5911;51.036;6.972;2023-06-26T13:19:05;4.68;;;1.42;;
11709;SDS011;5911;51.036;6.972;2023-06-26T13:21:34;5.15;;;1.55;;
11709;SDS011;5911;51.036;6.972;2023-06-26T13:24:03;6.45;;;1.38;;
11709;SDS011;5911;51.036;6.972;2023-06-26T13:26:31;3.67;;;1.35;;
11709;SDS011;5911;51.036;6.972;2023-06-26T13:29:03;3.90;;;1.58;;
11709;SDS011;5911;51.036;6.972;2023-06-26T13:31:31;5.90;;;1.80;;
11709;SDS011;5911;51.036;6.972;2023-06-26T13:34:00;5.45;;;1.63;;
11709;SDS011;5911;51.036;6.972;2023-06-26T13:36:30;10.50;;;1.90;;
11709;SDS011;5911;51.036;6.972;2023-06-26T13:39:02;3.67;;;1.30;;
11709;SDS011;5911;51.036;6.972;2023-06-26T13:41:30;4.97;;;1.33;;
11709;SDS011;5911;51.036;6.972;2023-06-26T13:43:58;6.80;;;1.55;;
11709;SDS011;5911;51.036;6.972;2023-06-26T13:46:38;5.75;;;1.80;;
11709;SDS011;5911;51.036;6.972;2023-06-26T13:49:05;3.00;;;1.33;;
11709;SDS011;5911;51.036;6.972;2023-06-26T13:51:33;3.72;;;1.55;;
11709;SDS011;5911;51.036;6.972;2023-06-26T13:54:02;3.33;;;1.52;;
11709;SDS011;5911;51.036;6.972;2023-06-26T13:56:30;5.93;;;1.50;;
11709;SDS011;5911;51.036;6.972;2023-06-26T13:58:58;2.78;;;1.58;;
11709;SDS011;5911;51.036;6.972;2023-06-26T14:01:26;1.98;;;1.13;;
11709;SDS011;5911;51.036;6.972;2023-06-26T14:03:54;3.45;;;1.20;;
11709;SDS011;5911;51.036;6.972;2023-06-26T14:06:21;4.80;;;1.48;;
11709;SDS011;5911;51.036;6.972;2023-06-26T14:08:49;6.40;;;1.73;;
11709;SDS011;5911;51.036;6.972;2023-06-26T14:11:19;4.72;;;1.40;;
11709;SDS011;5911;51.036;6.972;2023-06-26T14:13:48;4.40;;;1.30;;
11709;SDS011;5911;51.036;6.972;2023-06-26T14:16:16;4.25;;;1.40;;
11709;SDS011;5911;51.036;6.972;2023-06-26T14:18:45;3.35;;;1.60;;
11709;SDS011;5911;51.036;6.972;2023-06-26T14:21:13;2.13;;;1.08;;
11709;SDS011;5911;51.036;6.972;2023-06-26T14:23:41;4.13;;;1.10;;
11709;SDS011;5911;51.036;6.972;2023-06-26T14:26:09;3.60;;;1.38;;
11709;SDS011;5911;51.036;6.972;2023-06-26T14:28:39;3.78;;;1.88;;
11709;SDS011;5911;51.036;6.972;2023-06-26T14:31:07;2.28;;;1.35;;
11709;SDS011;5911;51.036;6.972;2023-06-26T14:33:35;2.85;;;1.42;;
11709;SDS011;5911;51.036;6.972;2023-06-26T14:36:03;6.13;;;1.58;;
11709;SDS011;5911;51.036;6.972;2023-06-26T14:38:30;4.25;;;1.38;;
11709;SDS011;5911;51.036;6.972;2023-06-26T14:40:58;3.33;;;1.40;;
11709;SDS011;5911;51.036;6.972;2023-06-26T14:43:26;2.97;;;1.40;;
11709;SDS011;5911;51.036;6.972;2023-06-26T14:45:56;7.78;;;1.75;;
11709;SDS011;5911;51.036;6.972;2023-06-26T14:48:24;3.83;;;1.30;;
11709;SDS011;5911;51.036;6.972;2023-06-26T14:50:56;3.33;;;1.83;;
11709;SDS011;5911;51.036;6.972;2023-06-26T14:53:23;6.13;;;1.70;;
11709;SDS011;5911;51.036;6.972;2023-06-26T14:55:51;5.95;;;1.98;;
11709;SDS011;5911;51.036;6.972;2023-06-26T14:58:19;3.78;;;1.33;;
11709;SDS011;5911;51.036;6.972;2023-06-26T15:00:47;2.10;;;1.40;;
11709;SDS011;5911;51.036;6.972;2023-06-26T15:03:17;3.22;;;1.50;;
11709;SDS011;5911;51.036;6.972;2023-06-26T15:05:45;4.68;;;1.38;;
11709;SDS011;5911;51.036;6.972;2023-06-26T15:08:12;4.15;;;1.42;;
11709;SDS011;5911;51.036;6.972;2023-06-26T15:10:40;3.70;;;1.40;;
11709;SDS011;5911;51.036;6.972;2023-06-26T15:13:08;4.10;;;1.70;;
11709;SDS011;5911;51.036;6.972;2023-06-26T15:15:36;3.10;;;2.05;;